TimeCDT,TemperatureF,Dew PointF,Humidity,Sea Level PressureIn,VisibilityMPH,Wind Direction,Wind SpeedMPH,Gust SpeedMPH,PrecipitationIn,Events,Conditions,WindDirDegrees,DateUTC
12:53 AM,73.0,70.0,90,29.80,10.0,East,4.6,-,N/A,,Clear,80,2013-08-22 05:53:00
1:53 AM,73.0,70.0,90,29.79,10.0,ENE,3.5,-,N/A,,Clear,60,2013-08-22 06:53:00
2:53 AM,73.0,69.1,87,29.78,10.0,NNE,5.8,-,N/A,,Clear,20,2013-08-22 07:53:00
3:53 AM,72.0,69.1,91,29.79,10.0,NNE,4.6,-,N/A,,Clear,20,2013-08-22 08:53:00
4:53 AM,71.1,69.1,93,29.78,10.0,Calm,Calm,-,N/A,,Clear,0,2013-08-22 09:53:00
5:53 AM,71.1,69.1,93,29.78,10.0,ENE,3.5,-,N/A,,Clear,70,2013-08-22 10:53:00
6:53 AM,73.0,69.1,87,29.79,10.0,Variable,4.6,-,N/A,,Clear,0,2013-08-22 11:53:00
7:53 AM,75.0,71.1,87,29.80,10.0,ENE,6.9,-,N/A,,Clear,70,2013-08-22 12:53:00
8:12 AM,75.2,71.6,89,30.14,10.0,East,6.9,-,N/A,,Partly Cloudy,90,2013-08-22 13:12:00
8:30 AM,77.0,71.6,83,30.14,10.0,East,6.9,-,N/A,,Mostly Cloudy,90,2013-08-22 13:30:00
8:48 AM,78.8,71.6,78,30.14,10.0,Variable,3.5,-,N/A,,Scattered Clouds,0,2013-08-22 13:48:00
8:53 AM,79.0,73.0,82,29.81,10.0,Variable,3.5,-,N/A,,Scattered Clouds,0,2013-08-22 13:53:00
9:53 AM,82.9,73.9,74,29.81,10.0,ENE,6.9,-,N/A,,Partly Cloudy,60,2013-08-22 14:53:00
10:53 AM,84.9,73.0,67,29.81,10.0,ESE,6.9,-,N/A,,Partly Cloudy,110,2013-08-22 15:53:00
11:53 AM,87.1,73.0,63,29.79,10.0,East,6.9,-,N/A,,Mostly Cloudy,100,2013-08-22 16:53:00
12:53 PM,89.1,71.1,55,29.74,10.0,Variable,4.6,-,N/A,,Scattered Clouds,0,2013-08-22 17:53:00
1:21 PM,87.8,69.8,55,30.08,10.0,ENE,13.8,18.4,N/A,Thunderstorm,Mostly Cloudy,70,2013-08-22 18:21:00
1:36 PM,87.8,69.8,55,30.08,10.0,NE,12.7,-,N/A,,Scattered Clouds,50,2013-08-22 18:36:00
1:53 PM,87.1,73.0,63,29.75,10.0,ENE,9.2,-,N/A,,Clear,60,2013-08-22 18:53:00
2:38 PM,80.6,71.6,74,30.10,10.0,SE,12.7,25.3,N/A,Thunderstorm,Thunderstorm,130,2013-08-22 19:38:00
2:53 PM,78.1,70.0,76,29.75,10.0,SE,13.8,-,N/A,,Mostly Cloudy,130,2013-08-22 19:53:00
3:53 PM,78.1,70.0,76,29.71,10.0,East,3.5,-,N/A,,Clear,100,2013-08-22 20:53:00
4:53 PM,79.0,71.1,77,29.69,10.0,ESE,4.6,-,0.00,,Clear,110,2013-08-22 21:53:00
5:53 PM,80.1,73.0,79,29.69,10.0,ENE,8.1,-,N/A,,Clear,70,2013-08-22 22:53:00
6:53 PM,78.1,71.1,79,29.70,10.0,ESE,5.8,-,N/A,,Partly Cloudy,120,2013-08-22 23:53:00
7:53 PM,77.0,71.1,82,29.72,10.0,East,6.9,-,N/A,,Clear,90,2013-08-23 00:53:00
8:53 PM,75.9,72.0,87,29.73,10.0,East,4.6,-,N/A,,Clear,80,2013-08-23 01:53:00
9:53 PM,75.0,72.0,90,29.74,10.0,East,4.6,-,N/A,,Clear,80,2013-08-23 02:53:00
10:53 PM,73.0,71.1,93,29.74,10.0,Calm,Calm,-,N/A,,Clear,0,2013-08-23 03:53:00
11:53 PM,73.0,70.0,90,29.72,10.0,Calm,Calm,-,N/A,,Clear,0,2013-08-23 04:53:00